Time;durP1;ratioP1;P1;durP2;ratioP2;P2;SDS_P1;SDS_P2;PMS_P1;PMS_P2;Temp;Humidity;BMP_temperature;BMP_pressure;BME280_temperature;BME280_humidity;BME280_pressure;Samples;Min_cycle;Max_cycle;Signal;HPM_P1;HPM_P2
2023/12/24 00:02:09;;;;;;;3.25;1.40;;;9.30;99.90;;;;;;5053439;28;20036;-73
2023/12/24 00:04:35;;;;;;;11.23;1.00;;;9.30;99.90;;;;;;5053371;28;20052;-70
2023/12/24 00:07:01;;;;;;;5.03;1.23;;;9.30;99.90;;;;;;5053939;28;20047;-75
2023/12/24 00:09:27;;;;;;;2.70;0.60;;;9.30;99.90;;;;;;5058216;28;20484;-75
2023/12/24 00:11:52;;;;;;;10.68;1.13;;;9.30;99.90;;;;;;5053149;28;20036;-74
2023/12/24 00:14:18;;;;;;;3.33;0.90;;;9.30;99.90;;;;;;5049153;28;20060;-75
2023/12/24 00:16:44;;;;;;;1.90;1.00;;;9.30;99.90;;;;;;5053111;28;20044;-75
2023/12/24 00:19:10;;;;;;;7.45;1.85;;;9.30;99.90;;;;;;5049695;28;20040;-72
2023/12/24 00:21:35;;;;;;;3.08;1.48;;;9.30;99.90;;;;;;5049535;28;20067;-73
2023/12/24 00:24:01;;;;;;;14.70;1.60;;;9.30;99.90;;;;;;5028508;28;20042;-74
2023/12/24 00:26:27;;;;;;;1.52;0.93;;;9.30;99.90;;;;;;5053183;28;20063;-73
2023/12/24 00:28:53;;;;;;;2.28;0.75;;;9.30;99.90;;;;;;5053655;28;20396;-74
2023/12/24 00:31:19;;;;;;;3.00;1.65;;;9.30;99.90;;;;;;5052677;28;20032;-74
2023/12/24 00:33:44;;;;;;;3.55;1.33;;;9.30;99.90;;;;;;5049473;28;20036;-73
2023/12/24 00:36:10;;;;;;;2.13;0.80;;;9.30;99.90;;;;;;5053236;28;20048;-73
2023/12/24 00:38:36;;;;;;;8.32;1.13;;;9.30;99.90;;;;;;5030753;28;20101;-74
2023/12/24 00:41:02;;;;;;;5.57;0.65;;;9.30;99.90;;;;;;5034089;28;20063;-74
2023/12/24 00:43:27;;;;;;;1.75;1.05;;;9.30;99.90;;;;;;5044430;28;20092;-75
2023/12/24 00:45:53;;;;;;;6.13;1.02;;;9.30;99.90;;;;;;5053096;28;20049;-74
2023/12/24 00:48:19;;;;;;;2.20;0.43;;;9.30;99.90;;;;;;5053180;28;20045;-74
2023/12/24 00:50:45;;;;;;;4.40;0.80;;;9.30;99.90;;;;;;5031834;28;20044;-72
2023/12/24 00:53:11;;;;;;;1.25;1.08;;;9.30;99.90;;;;;;5053277;28;20039;-74
2023/12/24 00:55:36;;;;;;;5.55;1.02;;;9.30;99.90;;;;;;5053713;28;20068;-74
2023/12/24 00:58:02;;;;;;;3.40;1.30;;;9.30;99.90;;;;;;5053528;28;20389;-70
2023/12/24 01:00:28;;;;;;;2.95;0.88;;;9.30;99.90;;;;;;5048844;28;20481;-74
2023/12/24 01:02:54;;;;;;;6.13;1.15;;;9.30;99.90;;;;;;5053079;28;20428;-74
2023/12/24 01:05:20;;;;;;;6.20;1.55;;;9.30;99.90;;;;;;5053130;28;20045;-74
2023/12/24 01:07:46;;;;;;;4.47;1.15;;;9.30;99.90;;;;;;5027777;28;20072;-74
2023/12/24 01:10:12;;;;;;;2.15;0.98;;;9.30;99.90;;;;;;5053138;28;20048;-73
2023/12/24 01:12:37;;;;;;;2.22;0.65;;;9.20;99.90;;;;;;5052955;28;20049;-73
2023/12/24 01:15:04;;;;;;;4.88;0.95;;;9.30;99.90;;;;;;5053020;28;20040;-73
2023/12/24 01:17:30;;;;;;;5.35;1.00;;;9.30;99.90;;;;;;5052995;28;20074;-73
2023/12/24 01:19:57;;;;;;;6.05;1.42;;;9.20;99.90;;;;;;5052540;28;20564;-74
2023/12/24 01:22:23;;;;;;;1.63;0.70;;;9.20;99.90;;;;;;5037639;28;20028;-74
2023/12/24 01:24:49;;;;;;;3.00;0.65;;;9.20;99.90;;;;;;5051971;28;20385;-74
2023/12/24 01:27:15;;;;;;;5.32;0.90;;;9.20;99.90;;;;;;5056500;28;20051;-73
2023/12/24 01:29:41;;;;;;;2.78;0.70;;;9.20;99.90;;;;;;5056655;28;20115;-74
2023/12/24 01:32:07;;;;;;;1.98;0.50;;;9.20;99.90;;;;;;5031908;28;20123;-72
2023/12/24 01:34:32;;;;;;;4.97;0.70;;;9.20;99.90;;;;;;5056622;28;20052;-75
2023/12/24 01:36:58;;;;;;;6.97;1.08;;;9.10;99.90;;;;;;5048492;28;20044;-73
2023/12/24 01:39:25;;;;;;;2.65;1.13;;;9.10;99.90;;;;;;5057999;28;20047;-74
2023/12/24 01:41:51;;;;;;;3.97;0.98;;;9.20;99.90;;;;;;5065016;28;20049;-74
2023/12/24 01:44:17;;;;;;;5.57;1.27;;;9.20;99.90;;;;;;5055658;28;20105;-74
2023/12/24 01:46:43;;;;;;;5.43;1.40;;;9.20;99.90;;;;;;5056548;28;20094;-73
2023/12/24 01:49:13;;;;;;;7.57;1.38;;;9.10;99.90;;;;;;5056551;28;20036;-73
2023/12/24 01:51:39;;;;;;;3.85;0.75;;;9.20;99.90;;;;;;5056121;28;20051;-73
2023/12/24 01:54:06;;;;;;;1.85;0.60;;;9.20;99.90;;;;;;5056429;28;20032;-74
2023/12/24 01:56:32;;;;;;;12.10;1.95;;;9.20;99.90;;;;;;5051766;28;20045;-74
2023/12/24 01:58:59;;;;;;;3.50;0.88;;;9.20;99.90;;;;;;5052506;28;20071;-74
2023/12/24 02:01:27;;;;;;;4.88;0.80;;;9.20;99.90;;;;;;5056367;28;20051;-74
2023/12/24 02:03:53;;;;;;;5.43;1.13;;;9.20;99.90;;;;;;5055727;28;20041;-75
2023/12/24 02:06:19;;;;;;;5.30;1.15;;;9.20;99.90;;;;;;5061936;28;20076;-74
2023/12/24 02:08:45;;;;;;;2.08;0.93;;;9.20;99.90;;;;;;5054785;28;20048;-73
2023/12/24 02:11:11;;;;;;;3.75;0.85;;;9.20;99.90;;;;;;5055456;28;20047;-73
2023/12/24 02:13:37;;;;;;;4.93;1.52;;;9.20;99.90;;;;;;5027134;28;20044;-74
2023/12/24 02:16:05;;;;;;;5.03;0.70;;;9.20;99.90;;;;;;5064630;28;20040;-73
2023/12/24 02:18:32;;;;;;;2.42;0.90;;;9.20;99.90;;;;;;5050758;28;20040;-71
2023/12/24 02:21:03;;;;;;;4.45;0.90;;;9.30;99.90;;;;;;5056118;28;20399;-75
2023/12/24 02:23:29;;;;;;;5.00;0.88;;;9.30;99.90;;;;;;5052122;28;20072;-74
2023/12/24 02:26:00;;;;;;;4.32;1.05;;;9.30;99.90;;;;;;5051170;28;20093;-75
2023/12/24 02:28:28;;;;;;;12.13;1.38;;;9.30;99.90;;;;;;5030146;28;20101;-74
2023/12/24 02:31:01;;;;;;;6.20;1.35;;;9.30;99.90;;;;;;5059775;28;20072;-74
2023/12/24 02:33:34;;;;;;;1.73;0.80;;;9.30;99.90;;;;;;5027477;28;20052;-74
2023/12/24 02:36:02;;;;;;;2.55;1.23;;;9.30;99.90;;;;;;5060077;28;20043;-74
2023/12/24 02:38:27;;;;;;;4.75;0.60;;;9.30;99.90;;;;;;5050902;28;20047;-73
2023/12/24 02:40:53;;;;;;;2.60;0.98;;;9.30;99.90;;;;;;5066421;28;20036;-73
2023/12/24 02:43:19;;;;;;;2.00;0.80;;;9.30;99.90;;;;;;5055227;28;20538;-73
2023/12/24 02:45:45;;;;;;;1.17;0.63;;;9.30;99.90;;;;;;5055209;28;20044;-73
2023/12/24 02:48:11;;;;;;;5.10;1.23;;;9.30;99.90;;;;;;5054988;28;20044;-72
2023/12/24 02:50:37;;;;;;;3.75;1.00;;;9.30;99.90;;;;;;5055095;28;20050;-74
2023/12/24 02:53:03;;;;;;;3.72;0.80;;;9.30;99.90;;;;;;5055140;28;20115;-74
2023/12/24 02:55:29;;;;;;;4.85;1.00;;;9.30;99.90;;;;;;5030550;28;20040;-73
2023/12/24 02:57:54;;;;;;;2.33;0.63;;;9.30;99.90;;;;;;5055668;28;20051;-73
2023/12/24 03:00:20;;;;;;;0.85;0.52;;;9.30;99.90;;;;;;5051048;28;20511;-74
2023/12/24 03:02:46;;;;;;;4.60;1.30;;;9.30;99.90;;;;;;5050589;28;20049;-73
2023/12/24 03:05:12;;;;;;;2.40;0.90;;;9.30;99.90;;;;;;5053398;28;20036;-75
2023/12/24 03:07:38;;;;;;;5.57;0.95;;;9.30;99.90;;;;;;5054928;28;20076;-73
2023/12/24 03:10:04;;;;;;;3.13;0.60;;;9.30;99.90;;;;;;5054547;28;20040;-73
2023/12/24 03:12:30;;;;;;;4.55;0.88;;;9.30;99.90;;;;;;5055066;28;20128;-73
2023/12/24 03:14:56;;;;;;;1.33;0.63;;;9.30;99.90;;;;;;5054007;28;20115;-74
2023/12/24 03:17:21;;;;;;;2.47;0.73;;;9.30;99.90;;;;;;5052454;28;20037;-73
2023/12/24 03:19:47;;;;;;;4.05;0.90;;;9.30;99.90;;;;;;5053578;28;20044;-73
2023/12/24 03:22:13;;;;;;;3.08;0.50;;;9.30;99.90;;;;;;5050276;28;20488;-73
2023/12/24 03:24:39;;;;;;;1.60;0.70;;;9.40;99.90;;;;;;5029575;28;20124;-73
2023/12/24 03:27:04;;;;;;;2.08;0.70;;;9.40;99.90;;;;;;5054455;28;20032;-73
2023/12/24 03:29:30;;;;;;;2.22;0.40;;;9.30;99.90;;;;;;5054735;28;20044;-73
2023/12/24 03:31:56;;;;;;;1.40;0.52;;;9.40;99.90;;;;;;5054074;28;20492;-75
2023/12/24 03:34:22;;;;;;;1.80;0.60;;;9.40;99.90;;;;;;5054459;28;20396;-74
2023/12/24 03:36:47;;;;;;;3.20;0.70;;;9.40;99.90;;;;;;5033634;28;20062;-74
2023/12/24 03:39:14;;;;;;;1.08;0.80;;;9.40;99.90;;;;;;5052185;28;20047;-75
2023/12/24 03:41:41;;;;;;;0.75;0.50;;;9.40;99.90;;;;;;5054857;28;20066;-73
2023/12/24 03:44:07;;;;;;;2.20;0.60;;;9.40;99.90;;;;;;5013821;28;20095;-73
2023/12/24 03:46:32;;;;;;;3.13;0.40;;;9.40;99.90;;;;;;5014458;28;20046;-73
2023/12/24 03:48:58;;;;;;;1.88;0.32;;;9.40;99.90;;;;;;5014452;28;20041;-73
2023/12/24 03:51:24;;;;;;;1.95;0.80;;;9.40;99.90;;;;;;5030734;28;20042;-73
2023/12/24 03:53:51;;;;;;;1.90;0.88;;;9.40;99.90;;;;;;5013881;28;20088;-74
2023/12/24 03:56:17;;;;;;;6.68;0.70;;;9.40;99.90;;;;;;5030538;28;20056;-74
2023/12/24 03:58:43;;;;;;;1.00;0.50;;;9.40;99.90;;;;;;5026909;28;20038;-74
2023/12/24 04:01:10;;;;;;;1.05;0.45;;;9.40;99.90;;;;;;5030031;28;20413;-74
2023/12/24 04:03:36;;;;;;;1.50;0.55;;;9.40;99.90;;;;;;5030993;28;20076;-75
2023/12/24 04:06:10;;;;;;;1.25;0.80;;;9.40;99.90;;;;;;5031066;28;20045;-74
2023/12/24 04:08:36;;;;;;;6.05;1.27;;;9.40;99.90;;;;;;5031050;28;20045;-74
2023/12/24 04:11:02;;;;;;;2.55;0.75;;;9.40;99.90;;;;;;5009663;28;20083;-75
2023/12/24 04:13:27;;;;;;;1.83;0.57;;;9.40;99.90;;;;;;5030909;28;20073;-74
2023/12/24 04:15:53;;;;;;;1.33;1.02;;;9.40;99.90;;;;;;5030738;28;20041;-74
2023/12/24 04:18:19;;;;;;;1.23;0.90;;;9.40;99.90;;;;;;5026596;28;20453;-74
2023/12/24 04:20:44;;;;;;;1.65;0.80;;;9.40;99.90;;;;;;5030570;28;20415;-74
2023/12/24 04:23:10;;;;;;;1.23;0.82;;;9.40;99.90;;;;;;5030471;28;20539;-75
2023/12/24 04:25:36;;;;;;;2.08;0.45;;;9.40;99.90;;;;;;5031103;28;20402;-74
2023/12/24 04:28:02;;;;;;;0.80;0.47;;;9.40;99.90;;;;;;5030192;28;20394;-74
2023/12/24 04:30:28;;;;;;;3.08;0.80;;;9.40;99.90;;;;;;5030070;28;20138;-74
2023/12/24 04:32:53;;;;;;;3.08;0.70;;;9.40;99.90;;;;;;5030299;28;20040;-74
2023/12/24 04:35:19;;;;;;;4.47;1.02;;;9.40;99.90;;;;;;5018102;28;20033;-72
2023/12/24 04:37:45;;;;;;;6.47;0.73;;;9.50;99.90;;;;;;5007908;28;20049;-74
2023/12/24 04:40:11;;;;;;;2.97;0.50;;;9.50;99.90;;;;;;5029865;28;20041;-73
2023/12/24 04:42:37;;;;;;;1.67;0.77;;;9.40;99.90;;;;;;5022029;28;20053;-75
2023/12/24 04:45:03;;;;;;;1.77;0.70;;;9.50;99.90;;;;;;5026530;28;20072;-73
2023/12/24 04:47:29;;;;;;;3.30;1.00;;;9.50;99.90;;;;;;5014191;28;20042;-74
2023/12/24 04:49:55;;;;;;;5.32;0.88;;;9.50;99.90;;;;;;5030357;28;20500;-73
2023/12/24 04:52:20;;;;;;;1.20;0.68;;;9.50;99.90;;;;;;5009735;28;20037;-75
2023/12/24 04:54:46;;;;;;;5.55;0.82;;;9.50;99.90;;;;;;5030273;28;20493;-74
2023/12/24 04:57:12;;;;;;;2.53;1.35;;;9.50;99.90;;;;;;5030362;28;20038;-74
2023/12/24 04:59:38;;;;;;;1.42;0.82;;;9.60;99.90;;;;;;5012694;28;20044;-75
2023/12/24 05:02:04;;;;;;;1.60;0.95;;;9.60;99.90;;;;;;5030166;28;20044;-75
2023/12/24 05:04:32;;;;;;;1.67;0.90;;;9.60;99.90;;;;;;5033402;28;20049;-75
2023/12/24 05:06:59;;;;;;;2.25;0.70;;;9.60;99.90;;;;;;5032745;28;20038;-75
2023/12/24 05:09:25;;;;;;;1.58;1.13;;;9.60;99.90;;;;;;5031665;28;20038;-75
2023/12/24 05:11:50;;;;;;;4.60;1.00;;;9.60;99.90;;;;;;5015944;28;20033;-74
2023/12/24 05:14:16;;;;;;;2.53;1.83;;;9.70;99.90;;;;;;5017724;28;20067;-75
2023/12/24 05:16:42;;;;;;;2.72;0.90;;;9.60;99.90;;;;;;5033999;28;20542;-73
2023/12/24 05:19:09;;;;;;;4.50;1.38;;;9.70;99.90;;;;;;5013367;28;20059;-75
2023/12/24 05:21:34;;;;;;;3.75;1.15;;;9.70;99.90;;;;;;5017469;28;20470;-75
2023/12/24 05:24:00;;;;;;;3.90;1.80;;;9.70;99.90;;;;;;5033953;28;20172;-74
2023/12/24 05:26:26;;;;;;;5.10;1.05;;;9.70;99.90;;;;;;5017469;28;20560;-75
2023/12/24 05:28:55;;;;;;;2.72;1.45;;;9.80;99.90;;;;;;5016977;28;20500;-75
2023/12/24 05:31:20;;;;;;;4.75;0.85;;;9.80;99.90;;;;;;5033551;28;20045;-75
2023/12/24 05:33:46;;;;;;;6.63;1.80;;;9.80;99.90;;;;;;5016719;28;20037;-74
2023/12/24 05:36:15;;;;;;;3.92;1.40;;;9.90;99.90;;;;;;5016681;28;20037;-75
2023/12/24 05:38:41;;;;;;;6.20;1.70;;;9.90;99.90;;;;;;5028779;28;20095;-74
2023/12/24 05:41:12;;;;;;;5.88;1.00;;;9.90;99.90;;;;;;5030574;28;20045;-75
2023/12/24 05:43:38;;;;;;;2.85;1.90;;;9.90;99.90;;;;;;5033261;28;20413;-75
2023/12/24 05:46:11;;;;;;;4.82;1.30;;;9.90;99.90;;;;;;5032612;28;20033;-74
2023/12/24 05:48:37;;;;;;;2.38;1.05;;;9.90;99.90;;;;;;5029186;28;20053;-75
2023/12/24 05:51:03;;;;;;;5.25;1.52;;;9.90;99.90;;;;;;5028352;28;20034;-73
2023/12/24 05:53:28;;;;;;;4.93;1.20;;;9.90;99.90;;;;;;5032264;28;20052;-76
2023/12/24 05:55:54;;;;;;;15.93;2.50;;;9.90;99.90;;;;;;5022603;28;20033;-76
2023/12/24 05:58:20;;;;;;;10.20;1.92;;;9.90;99.90;;;;;;5032066;28;20045;-77
2023/12/24 06:00:47;;;;;;;6.07;1.50;;;9.90;99.90;;;;;;5029178;28;20037;-76
2023/12/24 06:03:13;;;;;;;2.88;1.70;;;9.90;99.90;;;;;;5031524;28;20736;-75
2023/12/24 06:05:39;;;;;;;12.07;0.80;;;10.00;99.90;;;;;;5032567;28;20045;-74
2023/12/24 06:08:06;;;;;;;9.63;1.42;;;10.00;99.90;;;;;;5030181;28;20049;-76
2023/12/24 06:10:33;;;;;;;2.00;0.88;;;10.00;99.90;;;;;;5036086;28;20069;-77
2023/12/24 06:12:59;;;;;;;4.03;1.65;;;10.00;99.90;;;;;;5033722;28;20068;-80
2023/12/24 06:15:25;;;;;;;3.67;1.48;;;10.00;99.90;;;;;;5041419;28;20466;-75
2023/12/24 06:17:50;;;;;;;8.23;2.83;;;10.00;99.90;;;;;;5031808;28;20037;-75
2023/12/24 06:20:16;;;;;;;7.15;1.50;;;10.10;99.90;;;;;;5026315;28;20048;-75
2023/12/24 06:22:42;;;;;;;5.95;1.25;;;10.10;99.90;;;;;;5039583;28;20041;-77
2023/12/24 06:25:08;;;;;;;6.90;1.48;;;10.10;99.90;;;;;;5031952;28;20478;-74
2023/12/24 06:27:34;;;;;;;4.38;1.55;;;10.20;99.90;;;;;;5036886;28;20041;-77
2023/12/24 06:30:00;;;;;;;3.97;1.52;;;10.20;99.90;;;;;;5029202;28;20509;-76
2023/12/24 06:32:26;;;;;;;3.30;1.10;;;10.20;99.90;;;;;;5034258;28;20128;-74
2023/12/24 06:34:51;;;;;;;3.38;1.15;;;10.20;99.90;;;;;;5034808;28;20033;-77
2023/12/24 06:37:17;;;;;;;4.32;1.83;;;10.20;99.90;;;;;;5035684;28;20041;-76
2023/12/24 06:39:43;;;;;;;10.55;1.45;;;10.20;99.90;;;;;;5028854;28;20037;-76
2023/12/24 06:42:09;;;;;;;5.43;1.05;;;10.30;99.90;;;;;;5031222;28;20053;-72
2023/12/24 06:48:15;;;;;;;4.65;0.73;;;10.40;99.90;;;;;;5033568;28;20028;-78
2023/12/24 06:50:41;;;;;;;8.38;1.55;;;10.30;99.90;;;;;;5034354;28;20116;-77
2023/12/24 06:53:07;;;;;;;1.60;1.33;;;10.40;99.90;;;;;;5018347;28;20048;-78
2023/12/24 06:55:32;;;;;;;1.27;0.50;;;10.40;99.90;;;;;;5021953;28;20091;-78
2023/12/24 06:57:58;;;;;;;4.68;0.68;;;10.40;99.90;;;;;;5042568;28;20557;-77
2023/12/24 07:00:24;;;;;;;2.58;0.93;;;10.40;99.90;;;;;;5036820;28;20478;-78
2023/12/24 07:02:50;;;;;;;5.75;1.17;;;10.40;99.90;;;;;;5035943;28;20048;-77
2023/12/24 07:05:16;;;;;;;7.47;1.77;;;10.40;99.90;;;;;;5034909;28;20044;-77
2023/12/24 07:07:42;;;;;;;3.97;0.70;;;10.40;99.90;;;;;;5031871;28;20045;-76
2023/12/24 07:10:08;;;;;;;5.57;1.02;;;10.40;99.90;;;;;;5021171;28;20049;-77
2023/12/24 07:12:34;;;;;;;5.68;1.15;;;10.40;99.90;;;;;;5055327;23;20024;-77
2023/12/24 07:14:59;;;;;;;2.20;0.80;;;10.40;99.90;;;;;;5082256;28;20804;-77
2023/12/24 07:17:25;;;;;;;6.85;0.88;;;10.40;99.90;;;;;;5083023;28;20164;-78
2023/12/24 07:19:51;;;;;;;3.50;0.80;;;10.40;99.90;;;;;;5067832;28;20066;-77
2023/12/24 07:22:17;;;;;;;8.13;1.63;;;10.50;99.90;;;;;;5083795;28;20127;-77
2023/12/24 07:24:43;;;;;;;5.20;1.00;;;10.50;99.90;;;;;;5082550;28;20550;-77
2023/12/24 07:27:09;;;;;;;4.03;0.98;;;10.50;99.90;;;;;;5082943;28;20036;-77
2023/12/24 07:29:35;;;;;;;3.90;1.55;;;10.50;99.90;;;;;;5063537;28;20410;-77
2023/12/24 07:32:00;;;;;;;4.40;0.77;;;10.50;99.90;;;;;;5082242;28;20903;-77
2023/12/24 07:34:26;;;;;;;3.88;0.95;;;10.50;99.90;;;;;;5081318;28;20371;-77
2023/12/24 07:36:52;;;;;;;14.23;1.90;;;10.50;99.90;;;;;;5078994;28;20047;-77
2023/12/24 07:39:18;;;;;;;1.40;0.68;;;10.50;99.90;;;;;;5073439;28;20036;-77
2023/12/24 07:41:44;;;;;;;5.93;1.08;;;10.60;99.90;;;;;;5071123;28;20044;-77
2023/12/24 07:44:09;;;;;;;9.30;0.90;;;10.50;99.90;;;;;;5085772;28;20480;-77
2023/12/24 07:46:36;;;;;;;7.25;1.45;;;10.50;99.90;;;;;;5081132;28;20047;-77
2023/12/24 07:49:02;;;;;;;2.67;0.93;;;10.60;99.90;;;;;;5081486;28;20040;-77
2023/12/24 07:51:28;;;;;;;10.90;1.55;;;10.60;99.90;;;;;;5082500;28;20048;-77
2023/12/24 07:53:54;;;;;;;6.05;0.75;;;10.60;99.90;;;;;;5061960;28;20688;-77
2023/12/24 07:56:20;;;;;;;1.30;0.95;;;10.60;99.90;;;;;;5084051;28;20046;-77
2023/12/24 07:58:45;;;;;;;3.65;1.30;;;10.60;99.90;;;;;;5080006;28;20183;-78
2023/12/24 08:01:11;;;;;;;3.55;0.68;;;10.60;99.90;;;;;;5066460;28;20043;-78
2023/12/24 08:03:37;;;;;;;2.17;0.90;;;10.60;99.90;;;;;;5085089;28;20119;-78
2023/12/24 08:06:03;;;;;;;4.53;0.80;;;10.60;99.90;;;;;;5079431;28;20040;-77
2023/12/24 08:08:29;;;;;;;6.07;1.10;;;10.60;99.90;;;;;;5072981;28;20032;-77
2023/12/24 08:10:54;;;;;;;10.25;1.45;;;10.60;99.90;;;;;;5082864;28;20378;-77
2023/12/24 08:13:21;;;;;;;4.80;0.88;;;10.70;99.90;;;;;;5072882;28;20055;-78
2023/12/24 08:15:47;;;;;;;5.32;1.52;;;10.70;99.90;;;;;;5072542;28;20039;-78
2023/12/24 08:18:13;;;;;;;10.50;1.13;;;10.70;99.90;;;;;;5083720;28;20508;-79
2023/12/24 08:20:39;;;;;;;4.25;1.00;;;10.70;99.90;;;;;;5070781;28;20093;-78
2023/12/24 08:23:07;;;;;;;4.07;0.90;;;10.70;99.90;;;;;;5087655;28;20118;-78
2023/12/24 08:25:33;;;;;;;6.20;1.73;;;10.70;99.90;;;;;;5082316;28;20051;-78
2023/12/24 08:27:59;;;;;;;9.73;1.63;;;10.70;99.90;;;;;;5086220;28;20164;-78
2023/12/24 08:30:25;;;;;;;6.75;0.77;;;10.70;99.90;;;;;;5071965;28;20039;-78
2023/12/24 08:32:51;;;;;;;1.50;1.05;;;10.70;99.90;;;;;;5062967;28;20036;-78
2023/12/24 08:35:17;;;;;;;2.97;1.42;;;10.70;99.90;;;;;;5069300;28;20047;-78
2023/12/24 08:37:43;;;;;;;3.72;0.93;;;10.70;99.90;;;;;;5078241;28;20032;-78
2023/12/24 08:40:09;;;;;;;11.68;2.25;;;10.70;99.90;;;;;;5071449;28;20032;-78
2023/12/24 08:42:35;;;;;;;5.65;1.63;;;10.80;99.90;;;;;;5082592;28;20051;-78
2023/12/24 08:45:00;;;;;;;11.65;1.80;;;10.80;99.90;;;;;;5083162;28;20043;-77
2023/12/24 08:47:26;;;;;;;6.38;1.67;;;10.80;99.90;;;;;;5063710;28;20039;-80
2023/12/24 08:49:53;;;;;;;8.38;1.23;;;10.80;99.90;;;;;;5081504;28;20497;-78
2023/12/24 08:52:18;;;;;;;5.97;1.10;;;10.80;99.90;;;;;;5081859;28;20038;-82
2023/12/24 08:54:44;;;;;;;7.13;1.35;;;10.80;99.90;;;;;;5081851;28;20032;-81
2023/12/24 08:57:11;;;;;;;6.50;1.25;;;10.80;99.90;;;;;;5070643;28;20052;-80
2023/12/24 08:59:37;;;;;;;6.47;1.15;;;10.80;99.90;;;;;;5084805;28;20389;-77
2023/12/24 09:02:02;;;;;;;4.80;1.40;;;10.80;99.90;;;;;;5090236;28;20032;-78
2023/12/24 09:04:28;;;;;;;7.28;1.52;;;10.80;99.90;;;;;;5082016;28;20031;-77
2023/12/24 09:06:54;;;;;;;9.80;1.80;;;10.80;99.90;;;;;;5082289;28;20475;-77
2023/12/24 09:09:19;;;;;;;8.38;0.90;;;10.80;99.90;;;;;;5085656;28;20505;-77
2023/12/24 09:11:47;;;;;;;4.05;1.98;;;10.80;99.90;;;;;;5070108;28;20188;-77
2023/12/24 09:14:13;;;;;;;3.00;0.77;;;10.80;99.90;;;;;;5068092;28;20109;-77
2023/12/24 09:16:38;;;;;;;3.05;0.93;;;10.90;99.90;;;;;;5088504;28;20489;-77
2023/12/24 09:19:04;;;;;;;4.00;0.93;;;10.90;99.90;;;;;;5069392;28;20036;-77
2023/12/24 09:21:30;;;;;;;2.80;0.70;;;11.00;99.90;;;;;;5067075;28;20044;-78
2023/12/24 09:23:58;;;;;;;2.08;1.08;;;10.90;99.90;;;;;;5080030;28;20470;-79
2023/12/24 09:26:24;;;;;;;1.10;0.82;;;11.00;99.90;;;;;;5078158;28;20382;-78
2023/12/24 09:28:50;;;;;;;5.15;1.35;;;11.00;99.90;;;;;;5071128;28;20036;-78
2023/12/24 09:31:19;;;;;;;;;;;11.00;99.90;;;;;;5084713;28;20047;-79
2023/12/24 09:33:45;;;;;;;6.38;0.45;;;11.10;99.90;;;;;;5086945;28;19924;-78
2023/12/24 09:36:11;;;;;;;10.57;1.25;;;11.10;99.90;;;;;;5080024;28;20040;-78
2023/12/24 09:38:37;;;;;;;6.05;0.85;;;11.20;99.90;;;;;;5081591;28;20044;-77
2023/12/24 09:41:02;;;;;;;12.00;2.33;;;11.20;99.90;;;;;;5068596;28;20070;-78
2023/12/24 09:43:30;;;;;;;6.57;1.48;;;11.20;99.90;;;;;;5067214;28;20044;-78
2023/12/24 09:45:57;;;;;;;8.40;1.52;;;11.20;99.90;;;;;;5089507;28;20040;-78
2023/12/24 09:48:22;;;;;;;7.18;1.05;;;11.20;99.90;;;;;;5073545;28;20040;-78
2023/12/24 09:50:49;;;;;;;1.73;0.75;;;11.20;99.90;;;;;;5087185;28;20168;-78
2023/12/24 09:53:15;;;;;;;3.53;1.17;;;11.20;99.90;;;;;;5083581;28;20036;-78
2023/12/24 09:55:41;;;;;;;1.27;0.52;;;11.20;99.90;;;;;;5075172;28;20032;-78
2023/12/24 09:58:06;;;;;;;5.63;0.93;;;11.20;99.90;;;;;;5088043;28;20039;-78
2023/12/24 10:00:32;;;;;;;2.88;1.25;;;11.20;99.90;;;;;;5070390;28;20413;-78
2023/12/24 10:02:58;;;;;;;7.53;1.45;;;11.20;99.90;;;;;;5083644;28;20044;-78
2023/12/24 10:05:23;;;;;;;4.15;1.35;;;11.20;99.90;;;;;;5082316;28;20419;-78
2023/12/24 10:07:49;;;;;;;6.75;1.85;;;11.20;99.90;;;;;;5084259;28;20496;-78
2023/12/24 10:10:15;;;;;;;3.40;0.95;;;11.30;99.90;;;;;;5070737;28;20028;-78
2023/12/24 10:12:42;;;;;;;8.88;1.40;;;11.30;99.90;;;;;;5091427;28;20052;-78
2023/12/24 10:15:08;;;;;;;5.72;1.30;;;11.30;99.90;;;;;;5084860;28;20054;-79
2023/12/24 10:17:35;;;;;;;4.38;0.82;;;11.30;99.90;;;;;;5084730;28;20397;-77
2023/12/24 10:20:08;;;;;;;1.55;0.63;;;11.40;99.90;;;;;;5083799;28;20589;-78
2023/12/24 10:22:34;;;;;;;12.98;1.30;;;11.50;99.90;;;;;;5082525;28;20044;-77
2023/12/24 10:25:01;;;;;;;10.48;1.40;;;11.40;99.90;;;;;;5088533;28;20047;-78
2023/12/24 10:27:27;;;;;;;7.75;1.23;;;11.50;99.90;;;;;;5066299;28;20044;-77
2023/12/24 10:29:55;;;;;;;12.32;1.55;;;11.50;99.90;;;;;;5081260;28;20032;-77
2023/12/24 10:32:24;;;;;;;3.25;1.05;;;11.50;99.90;;;;;;5086853;28;20102;-77
2023/12/24 10:34:57;;;;;;;6.87;0.97;;;11.60;99.90;;;;;;5083833;28;20036;-78
2023/12/24 10:37:27;;;;;;;4.47;0.85;;;11.60;99.90;;;;;;5086211;28;20387;-78
2023/12/24 10:40:10;;;;;;;5.05;1.15;;;11.60;99.90;;;;;;5082463;28;20196;-78
2023/12/24 10:42:40;;;;;;;2.72;1.00;;;11.60;99.90;;;;;;5082744;28;20180;-78
2023/12/24 10:45:07;;;;;;;4.47;1.40;;;11.70;99.90;;;;;;5069988;28;20127;-77
2023/12/24 10:47:34;;;;;;;12.63;1.83;;;11.70;99.90;;;;;;5070116;28;20138;-77
2023/12/24 10:50:00;;;;;;;5.47;1.15;;;11.70;99.90;;;;;;5085594;27;20398;-77
2023/12/24 10:52:26;;;;;;;6.63;0.60;;;11.70;99.90;;;;;;5081768;28;20099;-77
2023/12/24 10:54:53;;;;;;;3.53;1.70;;;11.70;99.90;;;;;;5081050;28;20044;-77
2023/12/24 10:57:44;;;;;;;5.38;1.35;;;11.70;99.90;;;;;;5085419;28;20097;-77
2023/12/24 11:00:16;;;;;;;8.68;1.95;;;11.70;99.90;;;;;;5081778;28;20050;-77
2023/12/24 11:02:47;;;;;;;6.07;1.02;;;11.70;99.90;;;;;;5081652;28;20506;-78
2023/12/24 11:05:46;;;;;;;3.13;0.80;;;11.70;99.90;;;;;;5079629;28;20078;-77
2023/12/24 11:08:21;;;;;;;3.63;1.57;;;11.70;99.90;;;;;;5079812;28;20044;-77
2023/12/24 11:10:57;;;;;;;4.07;1.00;;;11.70;99.90;;;;;;5080381;28;20757;-77
2023/12/24 11:13:36;;;;;;;4.78;1.70;;;11.70;99.90;;;;;;5080451;28;20044;-78
2023/12/24 11:16:11;;;;;;;1.05;0.90;;;11.70;99.90;;;;;;5072184;28;20549;-77
2023/12/24 11:18:47;;;;;;;5.93;1.10;;;11.70;99.90;;;;;;5067295;28;20040;-78
2023/12/24 11:21:14;;;;;;;2.15;0.50;;;11.70;99.90;;;;;;5080248;28;20405;-77
2023/12/24 11:23:40;;;;;;;2.95;0.95;;;11.70;99.90;;;;;;5095987;28;20032;-77
2023/12/24 11:26:32;;;;;;;1.17;1.05;;;11.70;99.90;;;;;;5079746;28;20036;-77
2023/12/24 11:29:02;;;;;;;6.22;1.48;;;11.70;99.90;;;;;;5065864;28;20174;-77
2023/12/24 11:31:29;;;;;;;11.50;1.40;;;11.70;99.90;;;;;;5087134;28;20044;-77
2023/12/24 11:33:56;;;;;;;5.97;1.00;;;11.70;99.90;;;;;;5080513;28;20508;-77
2023/12/24 11:36:27;;;;;;;5.30;2.55;;;11.60;99.90;;;;;;5070136;28;20136;-77
2023/12/24 11:38:59;;;;;;;6.20;0.90;;;11.70;99.90;;;;;;5086815;28;20827;-77
2023/12/24 11:41:25;;;;;;;7.65;1.10;;;11.70;99.90;;;;;;5065978;28;20047;-77
2023/12/24 11:43:59;;;;;;;5.50;0.90;;;11.70;99.90;;;;;;5081541;28;20031;-77
2023/12/24 11:46:30;;;;;;;2.50;0.90;;;11.70;99.90;;;;;;5063824;28;20040;-77
2023/12/24 11:49:06;;;;;;;3.50;0.98;;;11.70;99.90;;;;;;5070615;28;20031;-77
2023/12/24 11:51:32;;;;;;;4.88;1.75;;;11.70;99.90;;;;;;5082423;28;20465;-77
2023/12/24 11:54:05;;;;;;;3.95;0.90;;;11.70;99.90;;;;;;5065180;28;20066;-77
2023/12/24 11:56:32;;;;;;;4.50;1.50;;;11.70;99.90;;;;;;5064397;28;20032;-77
2023/12/24 11:59:01;;;;;;;7.30;0.88;;;11.70;99.90;;;;;;5070719;28;20521;-77
2023/12/24 12:01:31;;;;;;;;;;;11.70;99.90;;;;;;5081110;28;20267;-77
2023/12/24 12:03:59;;;;;;;6.63;0.70;;;11.70;99.90;;;;;;5068952;27;19916;-77
2023/12/24 12:06:26;;;;;;;1.42;0.93;;;11.70;99.90;;;;;;5080389;28;20540;-77
2023/12/24 12:08:52;;;;;;;3.92;1.17;;;11.70;99.90;;;;;;5063317;28;20071;-77
2023/12/24 12:11:19;;;;;;;3.97;1.45;;;11.80;99.90;;;;;;5069715;28;20028;-77
2023/12/24 12:13:45;;;;;;;4.95;1.40;;;11.80;99.90;;;;;;5079454;28;20100;-77
2023/12/24 12:16:11;;;;;;;9.00;1.73;;;11.70;99.90;;;;;;5081289;28;20072;-77
2023/12/24 12:18:36;;;;;;;6.75;1.67;;;11.80;99.90;;;;;;5079455;28;20059;-77
2023/12/24 12:21:02;;;;;;;8.70;2.75;;;11.80;99.90;;;;;;5081202;28;20481;-77
2023/12/24 12:23:28;;;;;;;8.90;2.50;;;11.70;99.90;;;;;;5081136;28;20058;-77
2023/12/24 12:25:54;;;;;;;8.00;1.63;;;11.80;99.90;;;;;;5068601;28;20135;-77
2023/12/24 12:28:20;;;;;;;7.18;2.15;;;11.80;99.90;;;;;;5081273;28;20099;-77
2023/12/24 12:30:45;;;;;;;6.38;2.28;;;11.80;99.90;;;;;;5068682;28;20035;-77
2023/12/24 12:33:12;;;;;;;10.30;1.30;;;11.80;99.90;;;;;;5069806;28;20068;-78
2023/12/24 12:35:38;;;;;;;4.63;1.65;;;11.80;99.90;;;;;;5085805;28;20039;-78
2023/12/24 12:38:04;;;;;;;4.22;1.75;;;11.80;99.90;;;;;;5078486;28;20115;-77
2023/12/24 12:40:30;;;;;;;4.57;1.08;;;11.80;99.90;;;;;;5064488;28;20107;-78
2023/12/24 12:42:56;;;;;;;16.38;2.55;;;11.80;99.90;;;;;;5069170;28;20044;-77
2023/12/24 12:45:22;;;;;;;8.50;2.05;;;11.70;99.90;;;;;;5079671;28;20401;-78
2023/12/24 12:47:48;;;;;;;8.90;2.50;;;11.70;99.90;;;;;;5085932;28;20035;-77
2023/12/24 12:50:14;;;;;;;4.80;1.45;;;11.80;99.90;;;;;;5084705;28;20071;-77
2023/12/24 12:52:40;;;;;;;4.47;1.92;;;11.70;99.90;;;;;;5078775;28;20622;-77